createdAt,value
2023-05-14T00:00:22.728Z,31.40
2023-05-14T00:02:49.749Z,34.17
2023-05-14T00:05:16.573Z,34.72
2023-05-14T00:07:43.235Z,34.47
2023-05-14T00:10:10.228Z,33.72
2023-05-14T00:12:36.801Z,34.08
2023-05-14T00:15:03.381Z,37.33
2023-05-14T00:17:30.032Z,36.92
2023-05-14T00:19:56.847Z,36.97
2023-05-14T00:22:23.503Z,37.15
2023-05-14T00:24:50.125Z,37.47
2023-05-14T00:27:16.840Z,37.20
2023-05-14T00:29:43.317Z,38.53
2023-05-14T00:32:09.816Z,35.30
2023-05-14T00:34:36.311Z,35.67
2023-05-14T00:37:02.802Z,39.08
2023-05-14T00:39:29.387Z,38.50
2023-05-14T00:41:56.181Z,35.22
2023-05-14T00:44:22.799Z,36.57
2023-05-14T00:46:49.467Z,38.38
2023-05-14T00:49:16.544Z,37.25
2023-05-14T00:51:43.290Z,35.97
2023-05-14T00:54:09.807Z,39.78
2023-05-14T00:56:36.403Z,35.30
2023-05-14T00:59:02.841Z,38.58
2023-05-14T01:01:29.635Z,40.05
2023-05-14T01:03:56.449Z,37.15
2023-05-14T01:06:59.048Z,34.38
2023-05-14T01:09:46.765Z,37.07
2023-05-14T01:12:25.200Z,36.20
2023-05-14T01:15:07.234Z,34.58
2023-05-14T01:17:46.310Z,35.58
2023-05-14T01:20:12.819Z,37.70
2023-05-14T01:22:39.365Z,38.07
2023-05-14T01:25:06.824Z,33.42
2023-05-14T01:27:43.615Z,37.05
2023-05-14T01:30:19.478Z,37.67
2023-05-14T01:32:51.069Z,33.53
2023-05-14T01:35:18.807Z,35.57
2023-05-14T01:37:47.105Z,33.53
2023-05-14T01:40:13.706Z,33.35
2023-05-14T01:42:41.133Z,31.95
2023-05-14T01:45:08.588Z,32.25
2023-05-14T01:47:35.110Z,33.97
2023-05-14T01:50:01.535Z,31.80
2023-05-14T01:52:27.947Z,35.10
2023-05-14T01:54:54.477Z,30.42
2023-05-14T01:57:20.867Z,34.92
2023-05-14T01:59:47.301Z,31.33
2023-05-14T02:02:13.733Z,29.83
2023-05-14T02:04:40.161Z,32.42
2023-05-14T02:07:06.604Z,30.92
2023-05-14T02:09:33.078Z,31.88
2023-05-14T02:11:59.541Z,35.27
2023-05-14T02:14:25.952Z,33.08
2023-05-14T02:16:52.477Z,32.92
2023-05-14T02:19:18.933Z,33.00
2023-05-14T02:21:45.410Z,34.63
2023-05-14T02:24:11.852Z,32.93
2023-05-14T02:26:38.289Z,33.13
2023-05-14T02:29:04.688Z,34.22
2023-05-14T02:31:31.123Z,37.05
2023-05-14T02:33:57.646Z,32.40
2023-05-14T02:36:24.090Z,31.93
2023-05-14T02:38:50.527Z,32.85
2023-05-14T02:41:16.947Z,32.97
2023-05-14T02:43:43.422Z,32.00
2023-05-14T02:46:09.909Z,33.55
2023-05-14T02:48:36.341Z,30.20
2023-05-14T02:51:02.863Z,29.85
2023-05-14T02:53:29.354Z,32.80
2023-05-14T02:55:55.858Z,30.10
2023-05-14T02:58:26.447Z,33.20
2023-05-14T03:00:55.388Z,30.43
2023-05-14T03:03:22.449Z,29.55
2023-05-14T03:05:49.438Z,33.58
2023-05-14T03:08:15.844Z,31.00
2023-05-14T03:10:42.254Z,32.85
2023-05-14T03:13:08.710Z,34.30
2023-05-14T03:15:35.124Z,30.98
2023-05-14T03:18:01.693Z,33.15
2023-05-14T03:20:28.290Z,33.42
2023-05-14T03:22:54.964Z,33.92
2023-05-14T03:25:21.571Z,34.40
2023-05-14T03:27:48.050Z,35.58
2023-05-14T03:30:14.503Z,34.63
2023-05-14T03:32:40.965Z,31.98
2023-05-14T03:35:07.905Z,34.92
2023-05-14T03:37:34.330Z,36.37
2023-05-14T03:40:00.771Z,35.88
2023-05-14T03:42:27.260Z,33.83
2023-05-14T03:44:53.723Z,36.60
2023-05-14T03:47:20.318Z,36.13
2023-05-14T03:49:46.860Z,35.57
2023-05-14T03:52:13.298Z,36.67
2023-05-14T03:54:39.695Z,40.65
2023-05-14T03:57:06.108Z,34.78
2023-05-14T03:59:32.601Z,36.08
2023-05-14T04:01:59.307Z,34.77
2023-05-14T04:04:26.008Z,33.72
2023-05-14T04:06:52.497Z,36.05
2023-05-14T04:09:18.912Z,37.00
2023-05-14T04:11:45.303Z,34.83
2023-05-14T04:14:11.741Z,33.47
2023-05-14T04:16:38.275Z,36.28
2023-05-14T04:19:04.773Z,36.28
2023-05-14T04:21:31.648Z,35.55
2023-05-14T04:23:58.288Z,31.90
2023-05-14T04:26:24.706Z,33.37
2023-05-14T04:28:51.081Z,34.85
2023-05-14T04:31:17.613Z,31.23
2023-05-14T04:33:44.119Z,32.90
2023-05-14T04:36:10.557Z,37.55
2023-05-14T04:38:36.978Z,33.73
2023-05-14T04:41:03.512Z,32.53
2023-05-14T04:43:29.930Z,31.25
2023-05-14T04:45:56.434Z,36.05
2023-05-14T04:48:22.911Z,34.63
2023-05-14T04:50:49.369Z,34.77
2023-05-14T04:53:15.789Z,34.85
2023-05-14T04:55:42.427Z,37.22
2023-05-14T04:58:08.824Z,35.88
2023-05-14T05:00:35.290Z,41.00
2023-05-14T05:03:01.837Z,39.73
2023-05-14T05:05:28.497Z,39.33
2023-05-14T05:07:55.077Z,36.58
2023-05-14T05:10:21.800Z,39.92
2023-05-14T05:12:48.524Z,33.10
2023-05-14T05:15:14.956Z,38.67
2023-05-14T05:17:41.412Z,37.20
2023-05-14T05:20:08.486Z,38.40
2023-05-14T05:22:34.976Z,41.15
2023-05-14T05:25:01.493Z,36.38
2023-05-14T05:27:28.022Z,37.87
2023-05-14T05:29:54.398Z,38.97
2023-05-14T05:32:20.921Z,37.65
2023-05-14T05:34:47.341Z,40.03
2023-05-14T05:37:13.803Z,38.72
2023-05-14T05:39:40.408Z,35.83
2023-05-14T05:42:07.337Z,38.92
2023-05-14T05:44:33.800Z,36.03
2023-05-14T05:47:00.371Z,37.65
2023-05-14T05:49:26.880Z,37.22
2023-05-14T05:51:53.370Z,36.33
2023-05-14T05:54:19.849Z,37.03
2023-05-14T05:56:46.366Z,35.90
2023-05-14T05:59:12.994Z,38.10
2023-05-14T06:01:39.438Z,35.25
2023-05-14T06:04:05.983Z,34.57
2023-05-14T06:06:32.484Z,33.75
2023-05-14T06:08:59.069Z,35.10
2023-05-14T06:11:25.546Z,35.63
2023-05-14T06:13:51.983Z,34.97
2023-05-14T06:16:18.528Z,32.13
2023-05-14T06:18:45.194Z,32.55
2023-05-14T06:21:11.726Z,35.22
2023-05-14T06:23:38.233Z,33.33
2023-05-14T06:26:04.801Z,32.65
2023-05-14T06:28:31.243Z,33.53
2023-05-14T06:30:57.673Z,34.53
2023-05-14T06:33:24.158Z,38.00
2023-05-14T06:35:50.666Z,29.40
2023-05-14T06:38:17.093Z,31.63
2023-05-14T06:40:43.511Z,33.37
2023-05-14T06:43:09.977Z,32.42
2023-05-14T06:45:36.488Z,29.27
2023-05-14T06:48:03.151Z,33.42
2023-05-14T06:50:29.595Z,30.67
2023-05-14T06:52:56.103Z,27.20
2023-05-14T06:55:22.717Z,29.55
2023-05-14T06:57:49.212Z,34.25
2023-05-14T07:00:16.282Z,30.10
2023-05-14T07:02:42.857Z,29.13
2023-05-14T07:05:10.381Z,27.73
2023-05-14T07:07:36.846Z,27.30
2023-05-14T07:10:03.718Z,29.85
2023-05-14T07:12:30.209Z,27.05
2023-05-14T07:14:56.594Z,29.90
2023-05-14T07:17:23.206Z,28.87
2023-05-14T07:19:49.795Z,30.67
2023-05-14T07:22:16.259Z,30.70
2023-05-14T07:24:42.747Z,30.40
2023-05-14T07:27:09.221Z,31.85
2023-05-14T07:29:35.674Z,31.80
2023-05-14T07:32:02.104Z,34.15
2023-05-14T07:34:28.602Z,30.27
2023-05-14T07:36:55.237Z,29.40
2023-05-14T07:39:21.750Z,31.35
2023-05-14T07:41:48.238Z,28.20
2023-05-14T07:44:14.711Z,32.83
2023-05-14T07:46:42.478Z,33.30
2023-05-14T07:49:08.902Z,29.52
2023-05-14T07:51:35.336Z,32.78
2023-05-14T07:54:01.822Z,30.97
2023-05-14T07:56:28.311Z,33.03
2023-05-14T07:58:54.811Z,34.95
2023-05-14T08:01:21.274Z,32.10
2023-05-14T08:03:47.983Z,33.45
2023-05-14T08:06:14.669Z,34.43
2023-05-14T08:08:41.249Z,31.70
2023-05-14T08:11:07.824Z,31.15
2023-05-14T08:13:34.455Z,32.42
2023-05-14T08:16:00.980Z,31.48
2023-05-14T08:18:27.420Z,33.27
2023-05-14T08:20:53.984Z,29.27
2023-05-14T08:23:20.736Z,30.80
2023-05-14T08:25:47.252Z,31.15
2023-05-14T08:28:13.696Z,28.92
2023-05-14T08:30:40.285Z,30.30
2023-05-14T08:33:06.815Z,35.25
2023-05-14T08:35:33.304Z,29.95
2023-05-14T08:37:59.825Z,33.38
2023-05-14T08:40:26.834Z,34.17
2023-05-14T08:42:55.454Z,30.40
2023-05-14T08:45:27.852Z,33.45
2023-05-14T08:47:55.560Z,32.80
2023-05-14T08:50:23.352Z,33.13
2023-05-14T08:52:50.537Z,31.67
2023-05-14T08:55:17.066Z,32.13
2023-05-14T08:57:43.477Z,32.88
2023-05-14T09:00:10.521Z,30.27
2023-05-14T09:02:38.107Z,33.22
2023-05-14T09:05:04.878Z,31.38
2023-05-14T09:07:31.882Z,30.50
2023-05-14T09:09:59.277Z,30.30
2023-05-14T09:12:25.743Z,32.10
2023-05-14T09:14:52.384Z,30.67
2023-05-14T09:17:19.524Z,28.30
2023-05-14T09:19:47.129Z,27.07
2023-05-14T09:22:16.001Z,31.92
2023-05-14T09:24:43.082Z,31.13
2023-05-14T09:27:10.263Z,31.77
2023-05-14T09:29:36.686Z,29.77
2023-05-14T09:32:03.489Z,29.07
2023-05-14T09:34:32.309Z,27.50
2023-05-14T09:37:06.522Z,26.20
2023-05-14T09:39:34.480Z,30.10
2023-05-14T09:42:00.935Z,28.83
2023-05-14T09:44:27.777Z,28.87
2023-05-14T09:46:55.344Z,28.95
2023-05-14T09:49:22.059Z,32.75
2023-05-14T09:51:49.597Z,32.03
2023-05-14T09:54:16.494Z,29.67
2023-05-14T09:56:44.316Z,31.87
2023-05-14T09:59:11.140Z,31.73
2023-05-14T10:01:37.938Z,30.75
2023-05-14T10:04:07.659Z,33.58
2023-05-14T10:06:38.080Z,29.63
2023-05-14T10:09:10.010Z,29.87
2023-05-14T10:11:38.519Z,30.95
2023-05-14T10:14:13.611Z,27.60
2023-05-14T10:16:44.047Z,28.55
2023-05-14T10:19:12.767Z,29.75
2023-05-14T10:21:41.507Z,29.63
2023-05-14T10:24:09.934Z,28.48
2023-05-14T10:26:39.225Z,30.55
2023-05-14T10:29:06.682Z,31.30
2023-05-14T10:31:50.815Z,29.92
2023-05-14T10:34:43.202Z,29.50
2023-05-14T10:37:15.421Z,31.33
2023-05-14T10:39:47.152Z,32.78
2023-05-14T10:42:25.841Z,32.30
2023-05-14T10:45:01.397Z,31.10
2023-05-14T10:47:39.107Z,29.43
2023-05-14T10:50:07.414Z,32.03
2023-05-14T10:52:34.275Z,33.30
2023-05-14T10:55:05.330Z,30.33
2023-05-14T10:57:32.621Z,28.27
2023-05-14T11:00:02.912Z,30.47
2023-05-14T11:02:32.521Z,30.00
2023-05-14T11:05:10.330Z,31.70
2023-05-14T11:07:42.442Z,28.77
2023-05-14T11:10:14.050Z,29.00
2023-05-14T11:12:42.718Z,29.53
2023-05-14T11:15:11.317Z,27.10
2023-05-14T11:17:40.192Z,26.45
2023-05-14T11:20:07.609Z,29.35
2023-05-14T11:22:35.006Z,27.92
2023-05-14T11:25:01.875Z,29.20
2023-05-14T11:27:28.379Z,25.58
2023-05-14T11:29:54.830Z,28.58
2023-05-14T11:32:21.780Z,27.50
2023-05-14T11:34:48.255Z,26.38
2023-05-14T11:37:16.480Z,27.33
2023-05-14T11:39:50.706Z,27.60
2023-05-14T11:42:18.033Z,25.27
2023-05-14T11:44:48.862Z,25.25
2023-05-14T11:47:17.108Z,27.98
2023-05-14T11:49:43.703Z,27.80
2023-05-14T11:52:10.916Z,28.55
2023-05-14T11:54:37.939Z,26.70
2023-05-14T11:57:12.671Z,26.30
2023-05-14T11:59:39.817Z,25.90
2023-05-14T12:02:10.770Z,26.70
2023-05-14T12:04:37.388Z,25.85
2023-05-14T12:07:15.545Z,25.88
2023-05-14T12:09:46.108Z,24.50
2023-05-14T12:12:12.971Z,26.58
2023-05-14T12:14:42.181Z,24.80
2023-05-14T12:17:19.770Z,26.17
2023-05-14T12:19:48.979Z,23.85
2023-05-14T12:22:18.083Z,24.52
2023-05-14T12:24:53.185Z,23.25
2023-05-14T12:27:22.692Z,20.93
2023-05-14T12:29:49.196Z,23.55
2023-05-14T12:32:15.631Z,20.33
2023-05-14T12:34:42.153Z,21.95
2023-05-14T12:37:08.676Z,22.95
2023-05-14T12:39:35.300Z,22.70
2023-05-14T12:42:01.883Z,25.17
2023-05-14T12:44:28.886Z,25.70
2023-05-14T12:46:55.503Z,21.90
2023-05-14T12:49:22.061Z,21.23
2023-05-14T12:51:48.765Z,21.60
2023-05-14T12:54:15.815Z,19.95
2023-05-14T12:56:42.967Z,18.80
2023-05-14T12:59:09.496Z,20.75
2023-05-14T13:01:36.058Z,21.17
2023-05-14T13:04:02.518Z,19.33
2023-05-14T13:06:29.055Z,19.88
2023-05-14T13:08:55.514Z,17.73
2023-05-14T13:11:21.997Z,23.42
2023-05-14T13:13:48.463Z,19.90
2023-05-14T13:16:15.103Z,20.43
2023-05-14T13:18:41.582Z,22.13
2023-05-14T13:21:08.099Z,21.33
2023-05-14T13:23:34.599Z,19.23
2023-05-14T13:26:01.165Z,20.88
2023-05-14T13:28:27.676Z,19.93
2023-05-14T13:31:11.246Z,17.80
2023-05-14T13:33:41.232Z,18.60
2023-05-14T13:36:08.265Z,19.38
2023-05-14T13:38:34.989Z,19.85
2023-05-14T13:41:01.573Z,21.10
2023-05-14T13:43:29.313Z,19.00
2023-05-14T13:45:55.836Z,17.48
2023-05-14T13:48:22.478Z,17.13
2023-05-14T13:50:49.449Z,19.23
2023-05-14T13:53:15.905Z,16.03
2023-05-14T13:55:42.396Z,19.10
2023-05-14T13:58:08.897Z,18.90
2023-05-14T14:00:35.400Z,19.52
2023-05-14T14:03:01.982Z,20.10
2023-05-14T14:05:28.514Z,19.30
2023-05-14T14:08:01.086Z,19.00
2023-05-14T14:10:34.696Z,20.20
2023-05-14T14:13:01.237Z,20.80
2023-05-14T14:15:27.848Z,17.63
2023-05-14T14:17:54.459Z,19.63
2023-05-14T14:20:21.067Z,19.73
2023-05-14T14:22:47.596Z,19.00
2023-05-14T14:25:14.109Z,18.50
2023-05-14T14:27:40.827Z,18.42
2023-05-14T14:30:09.067Z,20.70
2023-05-14T14:32:35.859Z,20.30
2023-05-14T14:35:02.350Z,19.77
2023-05-14T14:37:28.972Z,17.02
2023-05-14T14:39:55.507Z,19.67
2023-05-14T14:42:21.956Z,20.90
2023-05-14T14:44:48.330Z,19.50
2023-05-14T14:47:14.746Z,18.63
2023-05-14T14:49:41.226Z,18.10
2023-05-14T14:52:08.378Z,18.38
2023-05-14T14:54:34.914Z,16.87
2023-05-14T14:57:01.368Z,19.70
2023-05-14T14:59:27.790Z,18.83
2023-05-14T15:01:54.222Z,18.92
2023-05-14T15:04:20.655Z,18.15
2023-05-14T15:06:47.076Z,17.73
2023-05-14T15:09:13.590Z,19.23
2023-05-14T15:11:40.500Z,18.23
2023-05-14T15:14:06.972Z,20.55
2023-05-14T15:16:33.524Z,20.48
2023-05-14T15:19:00.038Z,17.27
2023-05-14T15:21:26.570Z,18.65
2023-05-14T15:23:52.989Z,17.60
2023-05-14T15:26:19.431Z,21.00
2023-05-14T15:28:45.912Z,19.77
2023-05-14T15:31:12.465Z,19.40
2023-05-14T15:33:38.976Z,19.63
2023-05-14T15:36:06.830Z,21.55
2023-05-14T15:38:33.467Z,20.13
2023-05-14T15:41:00.329Z,18.27
2023-05-14T15:43:26.767Z,19.90
2023-05-14T15:45:53.333Z,21.65
2023-05-14T15:48:19.800Z,20.08
2023-05-14T15:50:49.569Z,18.30
2023-05-14T15:53:16.265Z,15.77
2023-05-14T15:55:42.785Z,17.73
2023-05-14T15:58:09.255Z,19.02
2023-05-14T16:00:35.654Z,16.15
2023-05-14T16:03:02.316Z,21.45
2023-05-14T16:05:29.303Z,16.90
2023-05-14T16:07:55.866Z,19.13
2023-05-14T16:10:22.814Z,21.50
2023-05-14T16:12:49.550Z,21.90
2023-05-14T16:15:17.162Z,20.92
2023-05-14T16:17:43.761Z,21.95
2023-05-14T16:20:11.146Z,17.77
2023-05-14T16:22:37.774Z,18.40
2023-05-14T16:25:04.693Z,19.23
2023-05-14T16:27:31.269Z,21.35
2023-05-14T16:29:58.007Z,21.75
2023-05-14T16:32:24.536Z,20.93
2023-05-14T16:34:51.129Z,27.38
2023-05-14T16:37:18.009Z,20.02
2023-05-14T16:39:44.821Z,21.05
2023-05-14T16:42:11.775Z,20.35
2023-05-14T16:44:38.336Z,19.70
2023-05-14T16:47:05.155Z,18.52
2023-05-14T16:49:31.808Z,20.35
2023-05-14T16:51:58.325Z,19.05
2023-05-14T16:54:24.805Z,23.45
2023-05-14T16:56:51.592Z,23.33
2023-05-14T16:59:18.052Z,26.85
2023-05-14T17:01:44.774Z,41.35
2023-05-14T17:04:11.396Z,27.77
2023-05-14T17:06:38.105Z,23.95
2023-05-14T17:09:04.546Z,21.40
2023-05-14T17:11:31.042Z,19.65
2023-05-14T17:13:57.491Z,18.35
2023-05-14T17:16:24.076Z,19.33
2023-05-14T17:18:50.606Z,20.00
2023-05-14T17:21:17.317Z,21.20
2023-05-14T17:23:43.729Z,18.73
2023-05-14T17:26:10.186Z,22.33
2023-05-14T17:28:36.614Z,20.20
2023-05-14T17:31:03.162Z,18.98
2023-05-14T17:33:29.717Z,18.37
2023-05-14T17:35:56.218Z,20.42
2023-05-14T17:38:22.707Z,21.25
2023-05-14T17:40:49.100Z,17.00
2023-05-14T17:43:15.700Z,17.80
2023-05-14T17:45:53.126Z,17.77
2023-05-14T17:48:20.717Z,15.18
2023-05-14T17:50:47.250Z,16.05
2023-05-14T17:53:13.860Z,16.15
2023-05-14T17:55:40.432Z,16.50
2023-05-14T17:58:07.034Z,14.87
2023-05-14T18:00:33.560Z,16.05
2023-05-14T18:03:00.111Z,18.25
2023-05-14T18:05:26.784Z,13.85
2023-05-14T18:07:53.286Z,15.20
2023-05-14T18:10:19.806Z,16.70
2023-05-14T18:12:46.336Z,15.68
2023-05-14T18:15:12.797Z,13.88
2023-05-14T18:17:39.311Z,18.50
2023-05-14T18:20:07.457Z,14.50
2023-05-14T18:22:33.945Z,14.10
2023-05-14T18:25:00.462Z,13.95
2023-05-14T18:27:26.955Z,16.15
2023-05-14T18:29:53.403Z,14.27
2023-05-14T18:32:19.890Z,14.73
2023-05-14T18:34:46.476Z,17.53
2023-05-14T18:37:13.261Z,14.77
2023-05-14T18:39:39.834Z,15.70
2023-05-14T18:42:06.801Z,19.38
2023-05-14T18:44:33.279Z,16.75
2023-05-14T18:46:59.805Z,16.57
2023-05-14T18:49:26.203Z,17.05
2023-05-14T18:51:52.582Z,17.35
2023-05-14T18:54:19.043Z,16.90
2023-05-14T18:56:47.460Z,18.33
2023-05-14T18:59:14.240Z,15.73
2023-05-14T19:01:40.791Z,17.80
2023-05-14T19:04:07.481Z,16.35
2023-05-14T19:06:34.957Z,16.02
2023-05-14T19:09:01.390Z,16.10
2023-05-14T19:11:27.782Z,15.33
2023-05-14T19:13:54.220Z,16.00
2023-05-14T19:16:20.750Z,19.23
2023-05-14T19:18:47.289Z,16.20
2023-05-14T19:21:13.819Z,14.23
2023-05-14T19:23:40.261Z,13.70
2023-05-14T19:26:07.157Z,20.55
2023-05-14T19:28:33.750Z,16.67
2023-05-14T19:31:00.215Z,16.40
2023-05-14T19:33:26.628Z,14.80
2023-05-14T19:35:53.328Z,15.47
2023-05-14T19:38:19.830Z,15.90
2023-05-14T19:40:46.299Z,15.70
2023-05-14T19:43:12.862Z,13.98
2023-05-14T19:45:39.580Z,17.10
2023-05-14T19:48:06.404Z,16.13
2023-05-14T19:50:33.201Z,18.40
2023-05-14T19:53:00.204Z,16.25
2023-05-14T19:55:26.772Z,15.38
2023-05-14T19:57:53.364Z,18.98
2023-05-14T20:00:20.094Z,15.83
2023-05-14T20:02:46.626Z,17.40
2023-05-14T20:05:13.183Z,18.70
2023-05-14T20:07:40.456Z,19.80
2023-05-14T20:10:07.820Z,19.17
2023-05-14T20:12:34.288Z,17.03
2023-05-14T20:15:00.829Z,18.45
2023-05-14T20:17:27.351Z,18.75
2023-05-14T20:19:53.777Z,18.58
2023-05-14T20:22:20.160Z,17.42
2023-05-14T20:24:46.616Z,19.30
2023-05-14T20:27:13.077Z,20.13
2023-05-14T20:29:39.575Z,19.23
2023-05-14T20:32:06.556Z,20.67
2023-05-14T20:34:32.989Z,23.30
2023-05-14T20:36:59.563Z,18.83
2023-05-14T20:39:25.988Z,20.95
2023-05-14T20:41:52.435Z,21.98
2023-05-14T20:44:20.592Z,21.05
2023-05-14T20:46:47.747Z,20.50
2023-05-14T20:49:14.190Z,21.17
2023-05-14T20:51:40.585Z,20.02
2023-05-14T20:54:07.087Z,20.75
2023-05-14T20:56:33.691Z,22.20
2023-05-14T20:59:00.116Z,22.98
2023-05-14T21:01:26.537Z,21.83
2023-05-14T21:03:53.236Z,25.98
2023-05-14T21:06:19.943Z,23.63
2023-05-14T21:08:46.462Z,25.02
2023-05-14T21:11:13.195Z,24.25
2023-05-14T21:13:39.765Z,27.93
2023-05-14T21:16:06.732Z,23.98
2023-05-14T21:18:33.349Z,32.42
2023-05-14T21:20:59.840Z,27.15
2023-05-14T21:23:26.378Z,25.40
2023-05-14T21:25:52.873Z,25.10
2023-05-14T21:28:19.288Z,27.35
2023-05-14T21:30:45.784Z,29.52
2023-05-14T21:33:12.330Z,29.17
2023-05-14T21:35:38.791Z,26.50
2023-05-14T21:38:05.305Z,25.90
2023-05-14T21:40:31.728Z,28.80
2023-05-14T21:42:58.147Z,28.02
2023-05-14T21:45:24.749Z,29.83
2023-05-14T21:47:51.618Z,31.50
2023-05-14T21:50:18.368Z,29.63
2023-05-14T21:52:44.906Z,34.67
2023-05-14T21:55:11.352Z,32.15
2023-05-14T21:57:37.936Z,30.67
2023-05-14T22:00:05.200Z,31.20
2023-05-14T22:02:32.452Z,30.30
2023-05-14T22:04:59.101Z,32.30
2023-05-14T22:07:25.535Z,30.15
2023-05-14T22:09:52.775Z,30.80
2023-05-14T22:12:19.450Z,30.77
2023-05-14T22:14:46.140Z,35.13
2023-05-14T22:17:12.626Z,33.25
2023-05-14T22:19:39.231Z,35.70
2023-05-14T22:22:05.726Z,33.88
2023-05-14T22:24:32.199Z,31.65
2023-05-14T22:26:58.631Z,35.73
2023-05-14T22:29:25.121Z,33.25
2023-05-14T22:31:51.664Z,30.73
2023-05-14T22:34:18.235Z,32.55
2023-05-14T22:36:44.762Z,31.63
2023-05-14T22:39:13.211Z,32.43
2023-05-14T22:41:40.090Z,34.42
2023-05-14T22:44:06.543Z,38.15
2023-05-14T22:46:33.078Z,37.42
2023-05-14T22:48:59.524Z,36.10
2023-05-14T22:51:26.014Z,38.10
2023-05-14T22:53:52.470Z,35.75
2023-05-14T22:56:19.467Z,36.95
2023-05-14T22:58:45.905Z,40.45
2023-05-14T23:01:12.454Z,45.03
2023-05-14T23:03:39.021Z,40.10
2023-05-14T23:06:05.675Z,42.33
2023-05-14T23:08:32.123Z,42.05
2023-05-14T23:10:59.707Z,46.40
2023-05-14T23:13:26.167Z,40.13
2023-05-14T23:15:52.635Z,43.07
2023-05-14T23:18:19.135Z,40.75
2023-05-14T23:20:45.655Z,43.03
2023-05-14T23:23:12.228Z,50.08
2023-05-14T23:25:39.107Z,42.85
2023-05-14T23:28:06.122Z,44.87
2023-05-14T23:30:32.719Z,42.60
2023-05-14T23:32:59.204Z,41.53
2023-05-14T23:35:26.434Z,44.42
2023-05-14T23:37:53.466Z,46.63
2023-05-14T23:40:19.889Z,46.47
2023-05-14T23:42:46.577Z,45.85
2023-05-14T23:45:13.426Z,47.88
2023-05-14T23:47:40.986Z,49.33
2023-05-14T23:50:07.887Z,51.50
2023-05-14T23:52:34.364Z,52.97
2023-05-14T23:55:00.857Z,55.63
2023-05-14T23:57:27.438Z,52.97
2023-05-14T23:59:53.931Z,57.13
